Time;durP1;ratioP1;P1;durP2;ratioP2;P2;SDS_P1;SDS_P2;PMS_P1;PMS_P2;Temp;Humidity;BMP_temperature;BMP_pressure;BME280_temperature;BME280_humidity;BME280_pressure;Samples;Min_cycle;Max_cycle;Signal;HPM_P1;HPM_P2
2024/01/30 00:02:25;;;;;;;13.85;12.27;;;;;;;4.81;100.00;102458.94;5042097;28;20035;-70
2024/01/30 00:04:50;;;;;;;13.93;12.35;;;;;;;4.80;100.00;102454.56;5042400;28;20047;-70
2024/01/30 00:07:16;;;;;;;14.05;12.57;;;;;;;4.75;100.00;102457.19;5025206;28;20533;-70
2024/01/30 00:09:41;;;;;;;13.98;12.57;;;;;;;4.72;100.00;102449.28;5043140;28;20546;-70
2024/01/30 00:12:07;;;;;;;13.30;11.88;;;;;;;4.68;100.00;102458.97;5043469;28;20360;-70
2024/01/30 00:14:32;;;;;;;13.95;12.50;;;;;;;4.71;100.00;102450.16;5042684;28;20104;-70
2024/01/30 00:16:58;;;;;;;15.80;13.38;;;;;;;4.71;100.00;102456.31;5037365;28;20369;-70
2024/01/30 00:19:23;;;;;;;14.02;12.25;;;;;;;4.77;100.00;102458.09;5045422;28;20037;-71
2024/01/30 00:21:48;;;;;;;15.45;12.88;;;;;;;4.74;100.00;102450.19;5039514;28;20033;-70
2024/01/30 00:24:14;;;;;;;14.13;12.68;;;;;;;4.66;100.00;102442.25;5042127;28;20124;-71
2024/01/30 00:26:39;;;;;;;13.98;12.40;;;;;;;4.71;100.00;102452.81;5043906;28;20470;-70
2024/01/30 00:29:04;;;;;;;14.20;12.70;;;;;;;4.65;100.00;102445.78;5043820;28;20036;-69
2024/01/30 00:31:30;;;;;;;15.07;13.57;;;;;;;4.67;100.00;102451.94;5041396;28;20016;-70
2024/01/30 00:33:55;;;;;;;17.50;13.48;;;;;;;4.65;100.00;102451.06;5041863;28;20025;-69
2024/01/30 00:36:21;;;;;;;14.70;13.20;;;;;;;4.69;100.00;102454.59;5044980;28;20518;-70
2024/01/30 00:38:47;;;;;;;15.50;13.85;;;;;;;4.59;100.00;102439.63;5046006;28;20383;-69
2024/01/30 00:41:13;;;;;;;15.35;12.55;;;;;;;4.61;100.00;102444.03;5042031;28;20398;-70
2024/01/30 00:43:41;;;;;;;14.52;11.98;;;;;;;4.60;100.00;102438.75;5042807;28;20036;-70
2024/01/30 00:46:06;;;;;;;16.42;13.38;;;;;;;4.58;100.00;102440.50;5041940;28;20505;-69
2024/01/30 00:48:31;;;;;;;14.20;11.98;;;;;;;4.53;100.00;102437.00;5041980;28;20112;-70
2024/01/30 00:50:57;;;;;;;14.57;12.68;;;;;;;4.55;100.00;102441.38;5046023;28;20401;-69
2024/01/30 00:53:22;;;;;;;14.27;12.88;;;;;;;4.49;100.00;102434.38;5041251;28;20492;-69
2024/01/30 00:55:47;;;;;;;13.60;11.95;;;;;;;4.59;100.00;102440.50;5042774;28;20534;-70
2024/01/30 00:58:13;;;;;;;12.85;11.55;;;;;;;4.49;100.00;102442.28;5025939;28;20027;-69
2024/01/30 01:00:39;;;;;;;13.75;12.05;;;;;;;4.52;100.00;102435.25;5036454;28;20031;-70
2024/01/30 01:03:04;;;;;;;15.27;12.77;;;;;;;4.56;100.00;102437.88;5044039;28;20430;-70
2024/01/30 01:05:30;;;;;;;13.85;12.43;;;;;;;4.54;100.00;102438.75;5040844;28;20234;-70
2024/01/30 01:07:55;;;;;;;14.82;13.15;;;;;;;4.64;100.00;102437.84;5042722;28;20067;-70
2024/01/30 01:10:20;;;;;;;14.30;12.38;;;;;;;4.55;100.00;102443.16;5042006;28;20115;-69
2024/01/30 01:12:46;;;;;;;14.10;11.50;;;;;;;4.48;100.00;102429.97;5044331;28;20307;-69
2024/01/30 01:15:11;;;;;;;14.50;12.98;;;;;;;4.48;100.00;102427.34;5047900;28;20466;-69
2024/01/30 01:17:41;;;;;;;13.80;11.85;;;;;;;4.50;100.00;102429.97;5023171;28;20044;-70
2024/01/30 01:20:07;;;;;;;13.45;11.80;;;;;;;4.50;100.00;102444.03;5043323;28;20104;-70
2024/01/30 01:22:33;;;;;;;13.88;12.50;;;;;;;4.44;100.00;102424.72;5039672;28;20060;-69
2024/01/30 01:24:58;;;;;;;13.52;12.18;;;;;;;4.48;100.00;102422.06;5040310;28;20655;-69
2024/01/30 01:27:24;;;;;;;14.40;12.02;;;;;;;4.51;100.00;102423.81;5042266;28;20033;-70
2024/01/30 01:29:50;;;;;;;12.90;11.50;;;;;;;4.53;100.00;102422.06;5045808;28;20100;-69
2024/01/30 01:32:16;;;;;;;13.85;12.20;;;;;;;4.59;100.00;102423.81;5021349;28;20053;-70
2024/01/30 01:34:41;;;;;;;16.27;12.52;;;;;;;4.63;100.00;102421.16;5042228;28;20039;-70
2024/01/30 01:37:07;;;;;;;14.27;12.00;;;;;;;4.64;100.00;102420.31;5044615;28;20036;-69
2024/01/30 01:39:32;;;;;;;14.90;11.95;;;;;;;4.70;100.00;102422.03;5030228;28;20021;-70
2024/01/30 01:41:58;;;;;;;13.68;11.80;;;;;;;4.70;100.00;102424.69;5038514;28;20151;-69
2024/01/30 01:44:23;;;;;;;13.38;12.02;;;;;;;4.71;100.00;102413.25;5041154;28;20340;-69
2024/01/30 01:46:48;;;;;;;14.38;12.15;;;;;;;4.79;100.00;102421.16;5040399;28;20051;-70
2024/01/30 01:49:14;;;;;;;12.90;11.63;;;;;;;4.82;100.00;102416.75;5040932;28;20332;-69
2024/01/30 01:51:41;;;;;;;15.10;12.23;;;;;;;4.78;100.00;102417.63;5041251;28;20082;-70
2024/01/30 01:54:07;;;;;;;13.50;12.02;;;;;;;4.79;100.00;102410.59;5043127;28;20031;-70
2024/01/30 01:56:34;;;;;;;13.68;12.27;;;;;;;4.79;100.00;102403.56;5043301;28;20029;-69
2024/01/30 01:59:04;;;;;;;13.15;11.85;;;;;;;4.81;100.00;102409.72;5044334;28;20513;-70
2024/01/30 02:01:32;;;;;;;13.68;12.18;;;;;;;4.81;100.00;102408.81;5052612;28;20025;-69
2024/01/30 02:03:58;;;;;;;13.15;11.65;;;;;;;4.83;100.00;102409.72;5039409;28;20035;-70
2024/01/30 02:06:24;;;;;;;15.60;11.77;;;;;;;4.76;100.00;102406.19;5041361;28;20095;-70
2024/01/30 02:08:49;;;;;;;14.00;11.73;;;;;;;4.76;100.00;102406.19;5043099;28;20029;-70
2024/01/30 02:11:16;;;;;;;15.77;12.48;;;;;;;4.76;100.00;102400.91;5053765;28;20033;-70
2024/01/30 02:13:42;;;;;;;12.88;11.13;;;;;;;4.66;100.00;102401.84;5043019;28;20033;-70
2024/01/30 02:16:07;;;;;;;14.40;11.88;;;;;;;4.71;100.00;102400.94;5045657;28;20031;-70
2024/01/30 02:18:32;;;;;;;13.00;11.27;;;;;;;4.65;100.00;102403.59;5041086;28;20201;-70
2024/01/30 02:21:01;;;;;;;12.98;11.00;;;;;;;4.59;100.00;102395.66;5043065;28;20029;-70
2024/01/30 02:23:27;;;;;;;12.75;11.13;;;;;;;4.64;100.00;102400.94;5042167;28;20122;-70
2024/01/30 02:25:53;;;;;;;14.57;11.98;;;;;;;4.60;100.00;102393.91;5048887;28;20052;-69
2024/01/30 02:28:19;;;;;;;14.00;11.20;;;;;;;4.56;100.00;102398.34;5046196;28;20025;-69
2024/01/30 02:30:46;;;;;;;13.00;11.70;;;;;;;4.49;100.00;102394.81;5041750;28;20041;-70
2024/01/30 02:33:12;;;;;;;13.40;11.77;;;;;;;4.46;100.00;102384.25;5047151;28;20087;-69
2024/01/30 02:35:37;;;;;;;12.80;11.23;;;;;;;4.47;100.00;102391.31;5044532;28;20036;-70
2024/01/30 02:38:03;;;;;;;12.63;11.32;;;;;;;4.47;100.00;102391.31;5046071;28;20025;-70
2024/01/30 02:40:28;;;;;;;12.95;10.63;;;;;;;4.48;100.00;102390.44;5055457;28;20032;-70
2024/01/30 02:42:54;;;;;;;12.07;10.82;;;;;;;4.44;100.00;102390.44;5043392;28;20024;-69
2024/01/30 02:45:19;;;;;;;14.90;11.73;;;;;;;4.44;100.00;102395.72;5034625;28;20484;-70
2024/01/30 02:47:45;;;;;;;14.05;12.18;;;;;;;4.47;100.00;102393.94;5047992;28;20486;-69
2024/01/30 02:50:11;;;;;;;13.13;11.73;;;;;;;4.48;100.00;102386.91;5046568;28;20032;-69
2024/01/30 02:52:36;;;;;;;13.93;12.10;;;;;;;4.47;100.00;102393.94;5046961;28;20090;-70
2024/01/30 02:55:02;;;;;;;13.10;11.52;;;;;;;4.51;100.00;102386.88;5051060;28;20028;-70
2024/01/30 02:57:28;;;;;;;15.13;12.10;;;;;;;4.55;100.00;102387.78;5052291;28;20106;-70
2024/01/30 02:59:53;;;;;;;12.98;11.20;;;;;;;4.56;100.00;102395.69;5057124;28;20294;-69
2024/01/30 03:02:19;;;;;;;12.65;11.35;;;;;;;4.58;100.00;102382.50;5043954;28;20057;-70
2024/01/30 03:04:44;;;;;;;13.05;11.43;;;;;;;4.62;100.00;102382.50;5047893;28;20036;-70
2024/01/30 03:07:09;;;;;;;12.75;11.43;;;;;;;4.63;100.00;102388.63;5039298;28;20025;-70
2024/01/30 03:09:36;;;;;;;13.02;11.73;;;;;;;4.65;100.00;102386.91;5052236;28;20119;-70
2024/01/30 03:12:02;;;;;;;13.30;11.90;;;;;;;4.59;100.00;102377.22;5046119;28;20111;-70
2024/01/30 03:14:30;;;;;;;12.70;11.32;;;;;;;4.60;100.00;102378.09;5047819;28;20392;-70
2024/01/30 03:16:56;;;;;;;13.95;11.88;;;;;;;4.65;100.00;102377.22;5053248;28;20120;-70
2024/01/30 03:19:21;;;;;;;12.57;11.27;;;;;;;4.60;100.00;102372.81;5032392;28;20358;-70
2024/01/30 03:21:46;;;;;;;14.40;11.70;;;;;;;4.55;100.00;102354.38;5048900;28;20056;-70
2024/01/30 03:24:12;;;;;;;13.40;11.63;;;;;;;4.61;100.00;102358.78;5045342;28;20497;-70
2024/01/30 03:26:37;;;;;;;12.82;10.95;;;;;;;4.57;100.00;102360.53;5049481;28;20041;-70
2024/01/30 03:29:02;;;;;;;11.88;10.50;;;;;;;4.52;100.00;102358.78;5052075;28;20037;-70
2024/01/30 03:31:28;;;;;;;12.75;11.43;;;;;;;4.47;100.00;102357.03;5052728;28;20033;-70
2024/01/30 03:33:53;;;;;;;12.77;11.05;;;;;;;4.49;100.00;102355.25;5048461;28;20032;-71
2024/01/30 03:36:19;;;;;;;14.25;11.43;;;;;;;4.55;100.00;102353.50;5045400;28;20112;-70
2024/01/30 03:38:45;;;;;;;12.48;11.18;;;;;;;4.56;100.00;102350.88;5040120;28;20045;-71
2024/01/30 03:41:10;;;;;;;12.68;11.07;;;;;;;4.67;100.00;102350.81;5044882;28;20487;-71
2024/01/30 03:43:36;;;;;;;12.68;10.93;;;;;;;4.60;100.00;102349.06;5049473;28;20328;-70
2024/01/30 03:46:02;;;;;;;13.10;11.70;;;;;;;4.67;100.00;102348.19;5046877;28;20029;-69
2024/01/30 03:48:28;;;;;;;16.30;11.35;;;;;;;4.74;100.00;102365.78;5045868;28;20069;-70
2024/01/30 03:50:54;;;;;;;13.95;12.45;;;;;;;4.81;100.00;102350.78;5030999;28;20056;-70
2024/01/30 03:53:19;;;;;;;13.10;11.50;;;;;;;4.84;100.00;102356.94;5044344;28;20158;-69
2024/01/30 03:55:45;;;;;;;15.05;12.48;;;;;;;4.93;100.00;102359.56;5043620;28;20040;-70
2024/01/30 03:58:10;;;;;;;11.95;10.75;;;;;;;5.02;100.00;102356.03;5040730;28;20537;-70
2024/01/30 04:00:35;;;;;;;12.15;10.95;;;;;;;5.11;100.00;102355.09;5049899;28;20167;-69
2024/01/30 04:03:01;;;;;;;13.45;12.05;;;;;;;5.16;100.00;102358.59;5050521;28;20168;-69
2024/01/30 04:05:26;;;;;;;14.32;12.80;;;;;;;5.23;100.00;102361.22;5042484;28;20033;-68
2024/01/30 04:07:52;;;;;;;15.13;12.77;;;;;;;5.42;100.00;102361.09;5042565;28;20125;-69
2024/01/30 04:10:20;;;;;;;15.50;12.80;;;;;;;5.50;100.00;102357.53;5043852;28;20407;-69
2024/01/30 04:12:45;;;;;;;13.93;12.32;;;;;;;5.56;100.00;102347.81;5031861;28;20021;-69
2024/01/30 04:15:11;;;;;;;13.10;11.70;;;;;;;5.58;100.00;102359.25;5051898;28;20419;-69
2024/01/30 04:17:36;;;;;;;14.43;12.60;;;;;;;5.64;100.00;102357.47;5045371;28;20025;-69
2024/01/30 04:20:02;;;;;;;13.73;12.20;;;;;;;5.66;100.00;102349.53;5032615;28;20035;-69
2024/01/30 04:22:27;;;;;;;13.75;12.35;;;;;;;5.66;100.00;102346.88;5057360;28;20059;-70
2024/01/30 04:24:53;;;;;;;14.13;12.38;;;;;;;5.70;100.00;102344.22;5061165;28;20048;-69
2024/01/30 04:27:18;;;;;;;13.38;12.02;;;;;;;5.70;100.00;102356.53;5045942;28;20021;-69
2024/01/30 04:29:43;;;;;;;13.40;11.75;;;;;;;5.73;100.00;102344.19;5035224;28;20039;-69
2024/01/30 04:32:12;;;;;;;11.45;10.23;;;;;;;5.77;100.00;102349.44;5042315;28;20029;-68
2024/01/30 04:34:37;;;;;;;11.95;10.38;;;;;;;5.78;100.00;102349.44;5038599;28;20068;-69
2024/01/30 04:37:03;;;;;;;12.60;11.30;;;;;;;5.78;100.00;102343.28;5029842;28;20478;-69
2024/01/30 04:39:28;;;;;;;12.98;11.00;;;;;;;5.82;100.00;102339.75;5025684;28;20033;-69
2024/01/30 04:41:54;;;;;;;12.95;11.65;;;;;;;5.83;100.00;102339.72;5043953;28;20032;-69
2024/01/30 04:44:19;;;;;;;12.68;11.38;;;;;;;5.86;100.00;102336.19;5054182;28;20394;-69
2024/01/30 04:46:44;;;;;;;12.95;11.65;;;;;;;5.86;100.00;102326.50;5057939;28;20032;-69
2024/01/30 04:49:10;;;;;;;13.15;11.80;;;;;;;5.83;100.00;102317.69;5047861;28;20029;-69
2024/01/30 04:51:36;;;;;;;12.98;10.52;;;;;;;5.85;100.00;102324.75;5041346;28;20028;-70
2024/01/30 04:54:01;;;;;;;12.95;9.48;;;;;;;5.88;100.00;102321.19;5043562;28;20384;-70
2024/01/30 04:56:26;;;;;;;10.73;9.35;;;;;;;5.89;100.00;102309.72;5047387;28;20029;-69
2024/01/30 04:58:51;;;;;;;12.10;10.05;;;;;;;5.93;100.00;102307.06;5036445;28;20064;-70
2024/01/30 05:01:17;;;;;;;11.27;9.95;;;;;;;5.93;100.00;102306.19;5042844;28;20067;-69
2024/01/30 05:03:43;;;;;;;10.27;9.23;;;;;;;5.97;100.00;102305.28;5042885;28;20037;-69
2024/01/30 05:06:08;;;;;;;12.07;10.77;;;;;;;6.00;100.00;102310.53;5043427;28;20033;-69
2024/01/30 05:08:36;;;;;;;10.15;9.15;;;;;;;6.01;100.00;102312.28;5038542;28;20027;-69
2024/01/30 05:11:03;;;;;;;11.13;9.68;;;;;;;6.01;100.00;102314.94;5045181;28;20040;-69
2024/01/30 05:13:30;;;;;;;10.43;8.88;;;;;;;6.08;100.00;102310.47;5049644;28;20074;-69
2024/01/30 05:15:55;;;;;;;9.55;8.60;;;;;;;6.13;100.00;102313.97;5043219;28;20213;-69
2024/01/30 05:18:21;;;;;;;11.88;10.77;;;;;;;6.19;100.00;102316.56;5050496;28;20413;-70
2024/01/30 05:20:46;;;;;;;11.77;10.50;;;;;;;6.25;100.00;102313.84;5049313;28;20033;-69
2024/01/30 05:23:11;;;;;;;10.63;9.55;;;;;;;6.23;100.00;102315.66;5048230;28;20028;-69
2024/01/30 05:25:37;;;;;;;10.35;9.23;;;;;;;6.35;100.00;102314.63;5045632;28;20583;-69
2024/01/30 05:28:02;;;;;;;8.95;8.07;;;;;;;6.47;100.00;102328.59;5045851;28;20041;-69
2024/01/30 05:30:28;;;;;;;9.10;8.20;;;;;;;6.48;100.00;102322.44;5042127;28;20037;-70
2024/01/30 05:32:53;;;;;;;9.68;8.50;;;;;;;6.55;100.00;102327.66;5043628;28;20153;-70
2024/01/30 05:35:20;;;;;;;9.60;8.50;;;;;;;6.58;100.00;102322.34;5044058;28;20029;-69
2024/01/30 05:37:46;;;;;;;8.80;7.50;;;;;;;6.63;100.00;102312.56;5043822;28;20021;-70
2024/01/30 05:40:11;;;;;;;10.88;8.65;;;;;;;6.69;100.00;102317.81;5039816;28;20082;-70
2024/01/30 05:42:37;;;;;;;9.20;8.27;;;;;;;6.76;100.00;102314.19;5048340;28;20073;-69
2024/01/30 05:45:02;;;;;;;9.43;8.52;;;;;;;6.80;100.00;102313.25;5045598;28;20449;-70
2024/01/30 05:47:27;;;;;;;9.02;8.13;;;;;;;6.82;100.00;102311.47;5043697;28;20149;-69
2024/01/30 05:49:53;;;;;;;9.73;8.20;;;;;;;6.85;100.00;102316.72;5023415;28;20673;-70
2024/01/30 05:52:19;;;;;;;9.70;8.32;;;;;;;6.89;100.00;102318.44;5048402;28;20053;-71
2024/01/30 05:54:44;;;;;;;9.90;8.88;;;;;;;6.95;100.00;102320.16;5045372;28;20025;-69
2024/01/30 05:57:10;;;;;;;10.27;8.52;;;;;;;6.94;100.00;102321.94;5043559;28;20033;-70
2024/01/30 05:59:36;;;;;;;10.20;8.77;;;;;;;7.01;100.00;102328.00;5038253;28;20388;-69
2024/01/30 06:02:01;;;;;;;11.00;8.95;;;;;;;7.05;100.00;102312.97;5049989;28;20032;-70
2024/01/30 06:04:27;;;;;;;10.60;8.93;;;;;;;7.02;100.00;102310.34;5043762;28;20040;-70
2024/01/30 06:06:52;;;;;;;10.18;9.15;;;;;;;7.02;100.00;102302.41;5043072;28;20029;-71
2024/01/30 06:09:18;;;;;;;10.90;9.80;;;;;;;7.01;100.00;102314.75;5039245;28;20025;-70
2024/01/30 06:11:43;;;;;;;12.55;10.00;;;;;;;7.02;100.00;102318.28;5053998;28;20032;-70
2024/01/30 06:14:08;;;;;;;11.25;9.38;;;;;;;6.99;100.00;102303.34;5046941;28;20478;-70
2024/01/30 06:16:34;;;;;;;10.90;9.80;;;;;;;7.07;100.00;102316.47;5038061;28;20029;-70
2024/01/30 06:19:00;;;;;;;11.82;9.90;;;;;;;7.00;100.00;102318.31;5046185;28;20608;-69
2024/01/30 06:21:25;;;;;;;10.70;9.48;;;;;;;7.01;100.00;102324.47;5038056;28;20036;-70
2024/01/30 06:23:50;;;;;;;13.38;10.07;;;;;;;7.02;100.00;102320.94;5040601;28;20116;-72
2024/01/30 06:26:16;;;;;;;9.52;8.50;;;;;;;6.99;100.00;102328.03;5040470;28;20049;-70
2024/01/30 06:28:41;;;;;;;10.27;8.90;;;;;;;7.02;100.00;102326.22;5042310;28;20636;-71
2024/01/30 06:31:06;;;;;;;10.13;9.13;;;;;;;6.99;100.00;102335.09;5028223;28;20038;-71
2024/01/30 06:33:32;;;;;;;11.18;10.07;;;;;;;7.02;100.00;102329.75;5047158;28;20036;-70
2024/01/30 06:35:57;;;;;;;11.57;10.18;;;;;;;6.97;100.00;102324.50;5044964;28;20040;-70
2024/01/30 06:38:22;;;;;;;11.82;10.63;;;;;;;6.92;100.00;102331.63;5043395;28;20033;-70
2024/01/30 06:40:48;;;;;;;12.43;10.88;;;;;;;6.92;100.00;102334.28;5042452;28;20036;-70
2024/01/30 06:43:13;;;;;;;11.68;10.18;;;;;;;6.99;100.00;102330.69;5045339;28;20033;-69
2024/01/30 06:45:39;;;;;;;10.82;9.40;;;;;;;6.97;100.00;102345.69;5024758;28;20032;-70
2024/01/30 06:48:04;;;;;;;9.82;8.93;;;;;;;7.03;100.00;102341.25;5052258;28;20083;-70
2024/01/30 06:50:30;;;;;;;9.75;8.75;;;;;;;6.94;100.00;102332.50;5048954;28;20343;-70
2024/01/30 06:52:55;;;;;;;10.73;9.55;;;;;;;6.97;100.00;102343.03;5050014;28;20033;-70
2024/01/30 06:55:20;;;;;;;11.68;9.45;;;;;;;6.99;100.00;102350.97;5045106;28;20036;-70
2024/01/30 06:57:46;;;;;;;11.57;10.40;;;;;;;6.96;100.00;102354.53;5046123;28;20103;-70
2024/01/30 07:00:12;;;;;;;10.98;9.88;;;;;;;6.97;100.00;102347.47;5042895;28;20527;-70
2024/01/30 07:02:37;;;;;;;11.90;10.15;;;;;;;7.02;100.00;102355.34;5051217;28;20033;-70
2024/01/30 07:05:03;;;;;;;9.82;8.80;;;;;;;7.03;100.00;102349.19;5043844;28;20025;-70
2024/01/30 07:07:28;;;;;;;8.80;7.85;;;;;;;7.10;100.00;102362.31;5049435;28;20029;-70
2024/01/30 07:09:56;;;;;;;9.90;7.65;;;;;;;7.17;100.00;102360.47;5044817;28;20378;-70
2024/01/30 07:12:22;;;;;;;8.90;8.00;;;;;;;7.14;100.00;102381.69;5044034;28;20064;-70
2024/01/30 07:14:48;;;;;;;10.02;8.00;;;;;;;7.18;100.00;102372.81;5052996;28;20029;-70
2024/01/30 07:17:13;;;;;;;8.65;7.85;;;;;;;7.23;100.00;102381.56;5048734;28;20371;-70
2024/01/30 07:19:39;;;;;;;9.10;7.57;;;;;;;7.26;100.00;102393.91;5042030;28;20047;-70
2024/01/30 07:22:04;;;;;;;8.48;7.50;;;;;;;7.30;100.00;102388.53;5043044;28;20063;-70
2024/01/30 07:24:29;;;;;;;9.35;7.75;;;;;;;7.29;100.00;102392.09;5042613;28;20345;-70
2024/01/30 07:26:55;;;;;;;9.35;7.78;;;;;;;7.33;100.00;102383.22;5049498;28;20245;-69
2024/01/30 07:29:21;;;;;;;8.88;7.65;;;;;;;7.41;100.00;102388.41;5044411;28;20082;-70
2024/01/30 07:31:47;;;;;;;8.40;7.60;;;;;;;7.44;100.00;102389.25;5049636;28;20028;-70
2024/01/30 07:34:12;;;;;;;9.52;7.15;;;;;;;7.55;100.00;102393.53;5032648;28;20142;-69
2024/01/30 07:36:37;;;;;;;11.23;7.85;;;;;;;7.57;100.00;102394.41;5047485;28;20040;-70
2024/01/30 07:39:03;;;;;;;10.95;7.15;;;;;;;7.57;100.00;102394.41;5043912;28;20024;-71
2024/01/30 07:41:28;;;;;;;8.93;7.85;;;;;;;7.52;100.00;102391.78;5038547;28;20033;-70
2024/01/30 07:43:53;;;;;;;9.02;8.13;;;;;;;7.60;100.00;102399.63;5046246;28;20421;-71
2024/01/30 07:46:19;;;;;;;10.23;7.38;;;;;;;7.58;100.00;102399.66;5051190;28;20407;-71
2024/01/30 07:48:44;;;;;;;9.73;8.18;;;;;;;7.64;100.00;102401.34;5030883;28;20056;-72
2024/01/30 07:51:10;;;;;;;10.60;8.00;;;;;;;7.68;100.00;102403.06;5049760;28;20071;-72
2024/01/30 07:53:35;;;;;;;8.55;7.60;;;;;;;7.66;100.00;102410.16;5049416;28;20452;-72
2024/01/30 07:56:00;;;;;;;9.55;8.25;;;;;;;7.59;100.00;102405.84;5044969;28;20021;-71
2024/01/30 07:58:27;;;;;;;9.55;8.45;;;;;;;7.69;100.00;102412.75;5047534;28;20063;-72
2024/01/30 08:00:53;;;;;;;10.80;8.07;;;;;;;7.66;100.00;102413.69;5031941;28;20033;-73
2024/01/30 08:03:18;;;;;;;10.05;8.32;;;;;;;7.71;100.00;102422.44;5040338;28;20045;-73
2024/01/30 08:05:44;;;;;;;9.38;8.07;;;;;;;7.75;100.00;102428.59;5043957;28;20037;-73
2024/01/30 08:08:09;;;;;;;9.18;7.43;;;;;;;7.76;100.00;102426.81;5045328;28;20032;-73
2024/01/30 08:10:35;;;;;;;12.93;8.82;;;;;;;7.74;100.00;102422.41;5045147;28;20037;-73
2024/01/30 08:13:01;;;;;;;9.82;7.82;;;;;;;7.76;100.00;102432.97;5045684;28;20507;-73
2024/01/30 08:15:27;;;;;;;12.65;8.40;;;;;;;7.72;100.00;102428.63;5038467;28;20490;-73
2024/01/30 08:17:57;;;;;;;9.55;7.53;;;;;;;7.76;100.00;102424.16;5044371;28;20457;-73
2024/01/30 08:20:23;;;;;;;8.52;7.68;;;;;;;7.74;100.00;102435.66;5041163;28;20151;-72
2024/01/30 08:22:48;;;;;;;8.43;7.60;;;;;;;7.76;100.00;102427.69;5042219;28;20532;-72
2024/01/30 08:25:13;;;;;;;10.02;8.20;;;;;;;7.76;100.00;102429.47;5042753;28;20052;-72
2024/01/30 08:27:39;;;;;;;10.35;8.18;;;;;;;7.78;100.00;102428.56;5044739;28;20401;-72
2024/01/30 08:30:06;;;;;;;10.48;8.48;;;;;;;7.84;100.00;102435.53;5042981;28;20060;-72
2024/01/30 08:32:32;;;;;;;10.70;8.23;;;;;;;7.88;100.00;102435.47;5044183;28;20064;-72
2024/01/30 08:34:57;;;;;;;9.02;8.05;;;;;;;7.93;100.00;102425.66;5050875;28;20440;-72
2024/01/30 08:37:23;;;;;;;9.50;8.50;;;;;;;7.88;100.00;102413.38;5042490;28;20028;-72
2024/01/30 08:39:48;;;;;;;11.55;8.98;;;;;;;7.98;100.00;102431.78;5043569;28;20033;-71
2024/01/30 08:42:14;;;;;;;10.05;8.15;;;;;;;8.02;100.00;102432.59;5042759;28;20048;-71
2024/01/30 08:44:40;;;;;;;12.27;8.60;;;;;;;8.03;100.00;102425.56;5049908;28;20016;-72
2024/01/30 08:47:05;;;;;;;9.90;8.93;;;;;;;8.12;100.00;102428.94;5040305;28;20071;-73
2024/01/30 08:49:31;;;;;;;9.45;8.45;;;;;;;8.19;100.00;102435.00;5031502;28;20037;-73
2024/01/30 08:51:56;;;;;;;10.05;8.68;;;;;;;8.22;100.00;102432.31;5043115;28;20507;-72
2024/01/30 08:54:22;;;;;;;9.15;8.02;;;;;;;8.26;100.00;102439.31;5044190;28;20035;-73
2024/01/30 08:56:48;;;;;;;10.35;8.02;;;;;;;8.30;100.00;102437.50;5045336;28;20021;-73
2024/01/30 08:59:13;;;;;;;9.57;8.68;;;;;;;8.35;100.00;102444.47;5044382;28;20021;-72
2024/01/30 09:01:38;;;;;;;9.30;8.32;;;;;;;8.38;100.00;102443.59;5045018;28;20198;-72
2024/01/30 09:04:04;;;;;;;11.43;8.80;;;;;;;8.42;100.00;102430.25;5041077;28;20056;-72
2024/01/30 09:06:29;;;;;;;10.48;8.90;;;;;;;8.47;100.00;102441.66;5042449;28;20020;-73
2024/01/30 09:08:55;;;;;;;10.30;8.55;;;;;;;8.50;100.00;102432.78;5043930;28;20103;-73
2024/01/30 09:11:20;;;;;;;11.60;8.35;;;;;;;8.51;100.00;102436.31;5043026;28;20013;-72
2024/01/30 09:13:45;;;;;;;10.43;8.38;;;;;;;8.57;100.00;102431.78;5036845;28;20025;-72
2024/01/30 09:16:11;;;;;;;11.55;8.63;;;;;;;8.63;100.00;102452.00;5044423;28;20412;-72
2024/01/30 09:18:36;;;;;;;10.70;8.45;;;;;;;8.63;100.00;102441.41;5043158;28;20075;-72
2024/01/30 09:21:02;;;;;;;11.13;8.93;;;;;;;8.70;100.00;102451.03;5045379;28;20507;-71
2024/01/30 09:23:27;;;;;;;12.30;9.02;;;;;;;8.74;100.00;102450.06;5044030;28;20060;-70
2024/01/30 09:25:53;;;;;;;12.57;8.60;;;;;;;8.70;100.00;102443.94;5045459;28;20156;-71
2024/01/30 09:28:18;;;;;;;10.40;8.82;;;;;;;8.73;100.00;102443.84;5044507;28;20036;-71
2024/01/30 09:30:44;;;;;;;12.82;8.80;;;;;;;8.81;100.00;102443.72;5039150;28;20107;-72
2024/01/30 09:33:09;;;;;;;11.63;8.40;;;;;;;8.93;100.00;102454.13;5040964;28;20047;-71
2024/01/30 09:35:36;;;;;;;10.07;8.23;;;;;;;8.96;100.00;102466.47;5042996;28;20036;-70
2024/01/30 09:38:02;;;;;;;10.30;8.77;;;;;;;9.02;100.00;102461.03;5031780;28;20021;-71
2024/01/30 09:40:28;;;;;;;11.90;8.68;;;;;;;9.05;100.00;102462.78;5046886;28;20037;-71
2024/01/30 09:42:54;;;;;;;9.48;7.93;;;;;;;9.07;100.00;102458.28;5043485;28;20388;-71
2024/01/30 09:45:23;;;;;;;9.77;8.10;;;;;;;9.11;100.00;102462.63;5043013;28;20340;-70
2024/01/30 09:47:48;;;;;;;10.57;8.20;;;;;;;9.13;100.00;102467.03;5038760;28;20179;-70
2024/01/30 09:50:14;;;;;;;11.18;7.80;;;;;;;9.12;100.00;102469.72;5043938;28;20071;-71
2024/01/30 09:52:40;;;;;;;11.30;8.40;;;;;;;9.17;100.00;102482.00;5043871;28;20028;-72
2024/01/30 09:55:06;;;;;;;16.70;8.75;;;;;;;9.17;100.00;102475.81;5039760;28;20514;-71
2024/01/30 09:57:32;;;;;;;12.18;8.93;;;;;;;9.22;100.00;102488.09;5047021;28;20284;-71
2024/01/30 09:59:57;;;;;;;12.15;8.45;;;;;;;9.29;100.00;102483.56;5043995;28;20120;-72
2024/01/30 10:02:23;;;;;;;10.05;8.13;;;;;;;9.29;100.00;102472.94;5048000;28;20025;-72
2024/01/30 10:04:50;;;;;;;11.30;8.23;;;;;;;9.35;100.00;102490.53;5040799;28;20395;-71
2024/01/30 10:07:16;;;;;;;11.88;8.38;;;;;;;9.41;100.00;102483.31;5043826;28;20060;-71
2024/01/30 10:09:43;;;;;;;10.85;9.32;;;;;;;9.51;100.00;102472.50;5057214;28;20031;-71
2024/01/30 10:12:11;;;;;;;9.45;7.95;;;;;;;9.61;100.00;102471.38;5049029;28;20027;-71
2024/01/30 10:14:40;;;;;;;11.85;8.57;;;;;;;9.69;100.00;102469.44;5033270;28;20033;-72
2024/01/30 10:17:09;;;;;;;11.02;7.97;;;;;;;9.85;100.00;102476.19;5045635;28;20043;-72
2024/01/30 10:19:35;;;;;;;10.77;8.23;;;;;;;9.90;100.00;102478.75;5046953;28;20028;-71
2024/01/30 10:22:00;;;;;;;11.48;8.27;;;;;;;9.90;100.00;102473.44;5047039;28;20029;-71
2024/01/30 10:24:26;;;;;;;12.57;8.85;;;;;;;9.89;100.00;102471.69;5045257;28;20491;-72
2024/01/30 10:26:53;;;;;;;11.32;8.02;;;;;;;9.93;100.00;102490.19;5045671;28;20040;-72
2024/01/30 10:29:18;;;;;;;12.63;8.85;;;;;;;9.89;100.00;102485.84;5046872;28;20033;-71
2024/01/30 10:31:44;;;;;;;10.45;8.27;;;;;;;9.91;100.00;102485.84;5047607;28;20031;-71
2024/01/30 10:34:09;;;;;;;12.43;9.52;;;;;;;9.92;100.00;102491.13;5047872;28;20033;-71
2024/01/30 10:36:43;;;;;;;11.93;8.80;;;;;;;9.89;100.00;102482.31;5047337;28;20024;-72
2024/01/30 10:39:09;;;;;;;11.57;8.38;;;;;;;9.96;100.00;102489.28;5031359;28;20174;-71
2024/01/30 10:41:44;;;;;;;12.48;8.57;;;;;;;9.96;100.00;102497.25;5045859;28;20113;-71
2024/01/30 10:44:10;;;;;;;10.98;8.10;;;;;;;10.01;100.00;102491.81;5009677;28;20026;-71
2024/01/30 10:46:38;;;;;;;10.77;8.05;;;;;;;10.00;100.00;102504.25;5046378;28;20075;-72
2024/01/30 10:49:04;;;;;;;9.52;7.97;;;;;;;9.95;100.00;102495.50;5030497;28;20037;-71
2024/01/30 10:51:31;;;;;;;12.95;8.80;;;;;;;9.95;100.00;102499.03;5044884;28;20175;-71
2024/01/30 10:53:57;;;;;;;10.95;8.57;;;;;;;9.90;100.00;102500.03;5042915;28;20653;-71
2024/01/30 10:56:24;;;;;;;11.82;8.15;;;;;;;9.89;100.00;102500.94;5045109;28;20291;-72
2024/01/30 10:58:52;;;;;;;10.80;8.20;;;;;;;9.79;100.00;102494.94;5046077;28;20225;-70
2024/01/30 11:01:19;;;;;;;9.98;8.40;;;;;;;9.87;100.00;102498.31;5027691;28;20104;-71
2024/01/30 11:03:45;;;;;;;12.00;8.25;;;;;;;10.05;100.00;102506.81;5046439;28;20106;-71
2024/01/30 11:06:18;;;;;;;11.40;8.10;;;;;;;10.09;100.00;102506.69;5046136;28;20061;-70
2024/01/30 11:08:45;;;;;;;11.77;8.02;;;;;;;10.19;100.00;102512.69;5039372;28;20093;-72